Who's Online

We have 6 guests online

GK Weather

An error occured during parsing XML data. Please try again.

Aviation WX

[source: ADDS]
METAR
KIAD 031552Z 31007KT 10SM SCT018 BKN060 18/14 A2982 RMK AO2 SLP095 T01830139 =
TAF
KIAD 031511Z 0315/0418 32007KT P6SM SCT012 OVC060 FM031900 01005KT P6SM -SHRA OVC025 FM040000 05004KT P6SM BKN020 FM040900 VRB03KT 3SM BR OVC003 FM041500 VRB04KT P6SM OVC015 =
SR / SS: 23:52 / 13:45 UTC (Washington-Dulles 2016-05-03)

JoomlaWatch Agent

Home Links
We are regularly out on the Web. When we find a great site we list it.